Etusivu
METAR-TAF:

METAR-TAF

Lentoasemat :

Damaskos, Syyria

Damaskoksen kansainvälinen lentoasema

Leveyspiiri: 33-25N, Pituuspiiri: 036-31E, korkeus merenpinnasta: 608 m

Tämänhetkinen sää

Tämä raportti tehtiin 5 minuuttia sitten, kello 05.00 UTC
Tuuli 16 kn lounaasta
Lämpötila 19°C
Kosteus 83%
Ilmanpaine 1015 hPa
Näkyvyys 10 km tai enemmän
ei pilviä alle 1500 m:ssä eikä cumulonimbus-pilviä

METAR: OSDI 210500Z 23016KT CAVOK 19/16 Q1015

Aika: 08:05 (05:05 UTC)

Sääennuste

Tämä raportti tehtiin 7 tuntia ja 5 minuuttia sitten, kello 22.00 UTC
Ennuste voimassa 21. päivästä klo 00 UTC - 22. päivään klo 06 UTC
Tuuli 10 kn lounaasta
Näkyvyys 10 km tai enemmän
ei pilviä alle 1500 m:ssä eikä cumulonimbus-pilviä
Ajoittain
21. päivästä klo 12 UTC - 21. päivään klo 20 UTC
Tuuli 15 kn lännestä/lounaasta
Näkyvyys 10 km tai enemmän
Muutamia pilviä 3000 ft:n korkeudessa

TAF: OSDI 202200Z 2100/2206 22010KT CAVOK TEMPO 2112/2120 25015KT 9999 FEW030

Säähavainnot ja -ennusteet yli 4000 lentoasemalta (METAR- ja TAF-raportit).

Käytössä olevat sääasemat on merkitty karttaan keltaisilla ja punaisilla pisteillä.

Aseta hiiri pisteen päälle nähdäksesi sääaseman nimen.

Klikkaa sitten nähdäksesi säähavainnot ja -ennusteet.

Kartan vaihtaminen: klikkaa mustalla rastilla varustettuja vihreitä pisteitä, niin voit zoomata sisään; viivalla varustettua vihreää pistettä, niin voit zoomata ulos tai vihreitä nuolia, niin pääset viereisille kartoille.


METAR-TAF: